createdAt,value
2023-03-22T00:00:15.590Z,6.68
2023-03-22T00:03:41.356Z,6.71
2023-03-22T00:06:52.021Z,6.60
2023-03-22T00:09:55.556Z,6.52
2023-03-22T00:13:01.057Z,6.44
2023-03-22T00:16:07.758Z,6.33
2023-03-22T00:19:10.365Z,6.32
2023-03-22T00:22:14.890Z,6.22
2023-03-22T00:25:19.537Z,6.15
2023-03-22T00:28:26.405Z,6.10
2023-03-22T00:31:29.473Z,6.10
2023-03-22T00:34:33.818Z,6.15
2023-03-22T00:37:39.009Z,6.15
2023-03-22T00:40:52.759Z,6.21
2023-03-22T00:43:55.926Z,6.06
2023-03-22T00:47:03.774Z,6.00
2023-03-22T00:50:08.128Z,6.07
2023-03-22T00:53:15.552Z,6.39
2023-03-22T00:56:18.869Z,6.37
2023-03-22T00:59:24.487Z,6.28
2023-03-22T01:02:29.861Z,6.24
2023-03-22T01:05:33.720Z,6.08
2023-03-22T01:08:39.181Z,6.06
2023-03-22T01:11:44.252Z,5.99
2023-03-22T01:14:49.576Z,5.92
2023-03-22T01:17:52.863Z,5.84
2023-03-22T01:20:58.899Z,5.72
2023-03-22T01:24:02.040Z,5.62
2023-03-22T01:27:07.309Z,5.51
2023-03-22T01:30:11.304Z,5.45
2023-03-22T01:33:16.208Z,5.48
2023-03-22T01:36:22.355Z,5.38
2023-03-22T01:39:27.520Z,5.27
2023-03-22T01:42:34.635Z,5.26
2023-03-22T01:45:42.129Z,5.22
2023-03-22T01:48:47.266Z,5.08
2023-03-22T01:51:58.887Z,4.99
2023-03-22T01:55:24.333Z,4.95
2023-03-22T01:58:29.721Z,5.01
2023-03-22T02:01:34.834Z,5.04
2023-03-22T02:04:40.904Z,5.06
2023-03-22T02:07:45.557Z,4.98
2023-03-22T02:10:51.593Z,4.93
2023-03-22T02:14:28.666Z,4.91
2023-03-22T02:17:51.590Z,4.84
2023-03-22T02:21:32.976Z,4.79
2023-03-22T02:24:55.732Z,4.75
2023-03-22T02:27:58.347Z,4.68
2023-03-22T02:31:01.791Z,4.58
2023-03-22T02:34:51.879Z,4.58
2023-03-22T02:38:06.100Z,4.45
2023-03-22T02:41:18.778Z,4.37
2023-03-22T02:44:37.320Z,4.29
2023-03-22T02:48:02.968Z,4.22
2023-03-22T02:51:23.003Z,4.20
2023-03-22T02:54:35.840Z,4.25
2023-03-22T02:58:04.643Z,4.26
2023-03-22T03:01:11.549Z,4.23
2023-03-22T03:04:19.729Z,4.21
2023-03-22T03:07:28.626Z,4.28
2023-03-22T03:10:53.646Z,4.33
2023-03-22T03:13:57.331Z,4.46
2023-03-22T03:17:38.072Z,4.48
2023-03-22T03:21:07.483Z,4.51
2023-03-22T03:24:30.132Z,4.56
2023-03-22T03:27:40.966Z,4.67
2023-03-22T03:30:56.496Z,4.84
2023-03-22T03:34:30.700Z,4.89
2023-03-22T03:37:47.996Z,4.80
2023-03-22T03:41:09.229Z,4.83
2023-03-22T03:44:16.919Z,4.87
2023-03-22T03:47:23.675Z,4.88
2023-03-22T03:50:30.623Z,4.91
2023-03-22T03:53:37.115Z,4.93
2023-03-22T03:56:42.485Z,4.90
2023-03-22T03:59:45.666Z,4.96
2023-03-22T04:02:52.061Z,5.01
2023-03-22T04:05:59.968Z,5.03
2023-03-22T04:09:07.245Z,5.03
2023-03-22T04:12:15.770Z,4.99
2023-03-22T04:15:20.059Z,4.95
2023-03-22T04:18:29.836Z,4.90
2023-03-22T04:21:41.414Z,4.98
2023-03-22T04:24:50.531Z,4.91
2023-03-22T04:28:17.742Z,4.82
2023-03-22T04:31:23.342Z,4.81
2023-03-22T04:34:27.105Z,4.68
2023-03-22T04:37:34.151Z,4.70
2023-03-22T04:40:47.046Z,4.79
2023-03-22T04:43:51.841Z,4.88
2023-03-22T04:47:01.115Z,4.92
2023-03-22T04:50:09.209Z,4.95
2023-03-22T04:53:15.521Z,4.85
2023-03-22T04:56:20.444Z,4.94
2023-03-22T04:59:25.363Z,4.97
2023-03-22T05:02:50.876Z,5.00
2023-03-22T05:05:56.890Z,5.00
2023-03-22T05:09:02.150Z,5.00
2023-03-22T05:12:07.990Z,5.02
2023-03-22T05:15:12.082Z,5.02
2023-03-22T05:18:16.289Z,5.04
2023-03-22T05:21:41.144Z,5.11
2023-03-22T05:24:43.943Z,5.14
2023-03-22T05:27:54.328Z,5.21
2023-03-22T05:30:57.959Z,5.33
2023-03-22T05:34:08.186Z,5.35
2023-03-22T05:37:11.732Z,5.50
2023-03-22T05:40:21.132Z,5.75
2023-03-22T05:43:24.156Z,5.95
2023-03-22T05:46:28.785Z,6.17
2023-03-22T05:49:33.012Z,6.40
2023-03-22T05:52:37.027Z,6.68
2023-03-22T05:55:46.189Z,6.89
2023-03-22T05:58:50.849Z,7.12
2023-03-22T06:01:53.660Z,7.30
2023-03-22T06:04:57.365Z,7.48
2023-03-22T06:08:00.540Z,7.64
2023-03-22T06:11:04.261Z,7.89
2023-03-22T06:14:42.029Z,8.15
2023-03-22T06:17:49.450Z,8.52
2023-03-22T06:20:57.803Z,8.97
2023-03-22T06:24:01.481Z,9.06
2023-03-22T06:27:07.103Z,9.42
2023-03-22T06:30:10.970Z,9.71
2023-03-22T06:33:14.638Z,10.01
2023-03-22T06:36:20.351Z,10.23
2023-03-22T06:39:28.380Z,10.52
2023-03-22T06:42:52.097Z,10.17
2023-03-22T06:45:57.559Z,10.36
2023-03-22T06:49:10.686Z,10.71
2023-03-22T06:52:15.546Z,10.71
2023-03-22T06:55:19.034Z,11.36
2023-03-22T06:58:21.690Z,11.52
2023-03-22T07:01:35.965Z,11.99
2023-03-22T07:04:40.211Z,12.07
2023-03-22T07:07:48.210Z,11.84
2023-03-22T07:10:51.524Z,12.18
2023-03-22T07:13:57.276Z,12.48
2023-03-22T07:17:06.066Z,12.51
2023-03-22T07:20:18.883Z,12.30
2023-03-22T07:23:27.992Z,12.76
2023-03-22T07:26:33.392Z,12.72
2023-03-22T07:29:36.610Z,12.80
2023-03-22T07:32:41.777Z,12.29
2023-03-22T07:35:46.844Z,12.77
2023-03-22T07:38:53.806Z,12.67
2023-03-22T07:41:57.383Z,12.51
2023-03-22T07:45:02.374Z,13.30
2023-03-22T07:48:15.819Z,13.70
2023-03-22T07:51:22.524Z,13.15
2023-03-22T07:54:33.876Z,13.82
2023-03-22T07:57:46.752Z,14.34
2023-03-22T08:00:58.624Z,13.00
2023-03-22T08:04:06.411Z,13.85
2023-03-22T08:07:10.444Z,13.79
2023-03-22T08:10:16.766Z,15.06
2023-03-22T08:13:21.526Z,14.95
2023-03-22T08:16:25.361Z,15.06
2023-03-22T08:19:28.534Z,14.73
2023-03-22T08:22:34.302Z,14.44
2023-03-22T08:25:43.588Z,14.27
2023-03-22T08:28:47.120Z,14.23
2023-03-22T08:31:51.188Z,14.24
2023-03-22T08:34:56.600Z,14.79
2023-03-22T08:37:59.132Z,14.45
2023-03-22T08:41:04.213Z,14.87
2023-03-22T08:44:07.206Z,14.50
2023-03-22T08:47:13.591Z,14.80
2023-03-22T08:50:19.896Z,13.52
2023-03-22T08:54:04.087Z,13.52
2023-03-22T08:57:14.817Z,13.68
2023-03-22T09:00:19.543Z,14.05
2023-03-22T09:03:25.247Z,13.71
2023-03-22T09:06:49.895Z,15.27
2023-03-22T09:09:53.849Z,15.62
2023-03-22T09:12:57.785Z,15.86
2023-03-22T09:16:01.515Z,15.72
2023-03-22T09:19:07.014Z,15.85
2023-03-22T09:22:10.074Z,15.69
2023-03-22T09:25:13.526Z,16.22
2023-03-22T09:28:17.334Z,16.01
2023-03-22T09:31:26.867Z,15.88
2023-03-22T09:34:30.665Z,16.36
2023-03-22T09:37:34.284Z,16.58
2023-03-22T09:40:46.411Z,16.67
2023-03-22T09:44:18.056Z,17.01
2023-03-22T09:47:44.824Z,17.57
2023-03-22T09:50:54.238Z,17.91
2023-03-22T09:54:27.795Z,17.72
2023-03-22T09:58:25.716Z,18.01
2023-03-22T10:02:13.377Z,16.75
2023-03-22T10:05:31.523Z,16.36
2023-03-22T10:08:48.088Z,16.25
2023-03-22T10:12:07.008Z,15.51
2023-03-22T10:15:38.432Z,15.95
2023-03-22T10:18:47.377Z,15.21
2023-03-22T10:21:55.352Z,14.99
2023-03-22T10:25:24.097Z,15.08
2023-03-22T10:28:46.562Z,15.94
2023-03-22T10:32:25.290Z,14.65
2023-03-22T10:35:28.884Z,15.67
2023-03-22T10:38:37.787Z,15.59
2023-03-22T10:41:43.471Z,14.94
2023-03-22T10:44:58.587Z,14.69
2023-03-22T10:48:11.923Z,15.47
2023-03-22T10:51:44.011Z,14.64
2023-03-22T10:54:48.918Z,14.24
2023-03-22T10:58:12.470Z,14.38
2023-03-22T11:01:27.351Z,14.48
2023-03-22T11:04:32.259Z,14.84
2023-03-22T11:07:46.137Z,14.61
2023-03-22T11:11:34.724Z,15.12
2023-03-22T11:14:45.937Z,14.84
2023-03-22T11:17:49.774Z,14.14
2023-03-22T11:21:07.444Z,13.96
2023-03-22T11:24:15.893Z,13.64
2023-03-22T11:27:50.122Z,14.14
2023-03-22T11:31:05.502Z,14.27
2023-03-22T11:34:17.242Z,14.00
2023-03-22T11:37:22.380Z,14.17
2023-03-22T11:40:34.829Z,14.52
2023-03-22T11:43:42.370Z,14.06
2023-03-22T11:47:03.614Z,13.89
2023-03-22T11:50:10.709Z,13.81
2023-03-22T11:53:22.299Z,14.66
2023-03-22T11:56:31.100Z,14.32
2023-03-22T12:00:00.012Z,14.59
2023-03-22T12:03:17.783Z,14.51
2023-03-22T12:06:31.952Z,14.66
2023-03-22T12:09:45.005Z,14.56
2023-03-22T12:13:25.231Z,14.37
2023-03-22T12:16:49.493Z,14.95
2023-03-22T12:20:12.904Z,14.63
2023-03-22T12:23:19.639Z,14.54
2023-03-22T12:26:34.055Z,14.54
2023-03-22T12:29:39.773Z,15.13
2023-03-22T12:33:04.840Z,14.93
2023-03-22T12:36:22.167Z,14.99
2023-03-22T12:39:53.912Z,15.90
2023-03-22T12:47:13.204Z,15.64
2023-03-22T12:50:36.314Z,16.13
2023-03-22T12:53:58.870Z,16.22
2023-03-22T12:57:05.046Z,16.25
2023-03-22T13:00:16.082Z,15.50
2023-03-22T13:03:46.986Z,16.07
2023-03-22T13:06:53.560Z,16.85
2023-03-22T13:10:01.181Z,16.57
2023-03-22T13:13:09.809Z,16.49
2023-03-22T13:16:12.977Z,16.47
2023-03-22T13:19:29.152Z,16.80
2023-03-22T13:22:52.684Z,16.97
2023-03-22T13:26:00.758Z,16.65
2023-03-22T13:29:33.206Z,16.85
2023-03-22T13:32:37.703Z,17.76
2023-03-22T13:35:51.244Z,17.94
2023-03-22T13:39:17.053Z,17.70
2023-03-22T13:42:22.817Z,17.79
2023-03-22T13:45:32.521Z,17.12
2023-03-22T13:48:49.277Z,16.81
2023-03-22T13:52:26.809Z,17.43
2023-03-22T13:55:43.436Z,17.36
2023-03-22T13:58:46.027Z,16.99
2023-03-22T14:01:56.639Z,17.32
2023-03-22T14:05:24.595Z,17.64
2023-03-22T14:08:32.825Z,17.32
2023-03-22T14:12:12.294Z,16.70
2023-03-22T14:16:04.291Z,16.72
2023-03-22T14:19:16.722Z,16.68
